D60

Tioga Municipal Airport

Tioga, North Dakota, USA
METAR KD60 221435Z AUTO 08010KT 10SM CLR 07/07 A2999 RMK AO2
Observed Flight Rules
Sep-22 @ 14:35 UTC (26 minutes ago) Visual Flight Rules
Wind Visibility Clouds
80° at 10 knots 10 miles
Temperatures Readings
Current 7°C / 45°F
Dewpoint 7°C / 45°F
Humidity 100%
Altimeter 29.99" Hg
Pressure 1016 hPa
Elevation 693
METAR KD60 221435Z AUTO 08010KT 10SM CLR 07/07 A2999 RMK AO2
Observed Flight Rules
Sep-22 @ 14:35 UTC
(26 minutes ago)
VFR
Wind Visibility
80° at 10 knots 10 miles
Clouds
Temperature Dewpoint
7°C / 45°F 7°C / 45°F
Humidity Altimeter Pressure
100% 29.99" Hg 1016 hPa